Terminal Aerodrome Forecast
Issued by NWS

Current Version | Previous Version | Graphics & Text | Print | Product List | Glossary On
Versions: 1 2 3 4 5 6 7 8 9 10 11 12 13 14 15 16 17 18 19 20 21 22 23 24 25 26 27 28 29
937
FTUS41 KPBZ 291738
TAFHLG
TAF
KHLG 291738Z 2918/3018 28005KT P6SM OVC050
     FM300000 03005KT P6SM OVC100
     FM300800 13006KT P6SM BKN250
     FM301500 21010KT P6SM BKN150=

USA.gov is the U.S. government's official web portal to all federal, state and local government web resources and services.